createdAt,value
2023-02-06T00:00:17.730Z,1013.28
2023-02-06T00:01:17.928Z,1013.29
2023-02-06T00:02:17.966Z,1013.29
2023-02-06T00:03:17.664Z,1013.27
2023-02-06T00:04:17.662Z,1013.23
2023-02-06T00:05:17.665Z,1013.24
2023-02-06T00:06:17.677Z,1013.15
2023-02-06T00:07:17.640Z,1013.10
2023-02-06T00:08:17.663Z,1013.05
2023-02-06T00:09:17.604Z,1013.06
2023-02-06T00:10:17.592Z,1013.03
2023-02-06T00:11:17.535Z,1013.02
2023-02-06T00:12:17.516Z,1012.98
2023-02-06T00:13:17.545Z,1012.98
2023-02-06T00:14:17.519Z,1013.00
2023-02-06T00:15:17.595Z,1013.02
2023-02-06T00:16:17.558Z,1013.04
2023-02-06T00:17:17.530Z,1012.99
2023-02-06T00:18:17.724Z,1013.06
2023-02-06T00:19:17.431Z,1013.05
2023-02-06T00:20:17.415Z,1013.06
2023-02-06T00:21:17.402Z,1013.05
2023-02-06T00:22:17.598Z,1013.06
2023-02-06T00:23:17.364Z,1013.04
2023-02-06T00:24:17.344Z,1013.07
2023-02-06T00:25:17.417Z,1013.11
2023-02-06T00:26:17.325Z,1013.10
2023-02-06T00:27:17.297Z,1013.08
2023-02-06T00:28:17.423Z,1013.08
2023-02-06T00:29:17.254Z,1013.07
2023-02-06T00:30:17.242Z,1013.12
2023-02-06T00:31:17.349Z,1013.11
2023-02-06T00:32:17.316Z,1013.03
2023-02-06T00:33:17.218Z,1013.03
2023-02-06T00:34:17.429Z,1013.02
2023-02-06T00:35:17.171Z,1013.01
2023-02-06T00:36:17.228Z,1013.01
2023-02-06T00:37:17.148Z,1013.01
2023-02-06T00:38:17.128Z,1013.03
2023-02-06T00:39:17.189Z,1013.05
2023-02-06T00:40:17.121Z,1013.02
2023-02-06T00:41:17.086Z,1013.08
2023-02-06T00:42:17.108Z,1013.07
2023-02-06T00:43:17.063Z,1013.04
2023-02-06T00:44:17.252Z,1013.03
2023-02-06T00:45:17.040Z,1013.05
2023-02-06T00:46:17.096Z,1013.01
2023-02-06T00:47:16.991Z,1012.97
2023-02-06T00:48:17.005Z,1012.95
2023-02-06T00:49:16.996Z,1012.97
2023-02-06T00:50:17.002Z,1012.94
2023-02-06T00:51:16.973Z,1012.89
2023-02-06T00:52:16.941Z,1012.94
2023-02-06T00:53:16.917Z,1012.91
2023-02-06T00:54:16.912Z,1012.92
2023-02-06T00:55:16.877Z,1012.95
2023-02-06T00:56:16.869Z,1013.01
2023-02-06T00:57:16.833Z,1013.01
2023-02-06T00:58:17.053Z,1013.03
2023-02-06T00:59:16.819Z,1013.03
2023-02-06T01:00:16.881Z,1013.05
2023-02-06T01:01:16.897Z,1013.02
2023-02-06T01:02:16.773Z,1013.02
2023-02-06T01:03:16.781Z,1013.06
2023-02-06T01:04:16.950Z,1013.03
2023-02-06T01:05:16.744Z,1013.07
2023-02-06T01:06:16.859Z,1013.09
2023-02-06T01:07:16.755Z,1013.12
2023-02-06T01:08:16.690Z,1013.11
2023-02-06T01:09:16.668Z,1013.18
2023-02-06T01:10:16.630Z,1013.20
2023-02-06T01:11:16.660Z,1013.23
2023-02-06T01:12:16.666Z,1013.27
2023-02-06T01:13:16.575Z,1013.25
2023-02-06T01:14:16.586Z,1013.21
2023-02-06T01:15:16.583Z,1013.25
2023-02-06T01:16:16.627Z,1013.24
2023-02-06T01:17:16.534Z,1013.24
2023-02-06T01:18:16.526Z,1013.21
2023-02-06T01:19:16.491Z,1013.17
2023-02-06T01:20:16.482Z,1013.15
2023-02-06T01:21:16.704Z,1013.17
2023-02-06T01:22:16.460Z,1013.19
2023-02-06T01:23:16.445Z,1013.19
2023-02-06T01:24:16.428Z,1013.22
2023-02-06T01:25:16.433Z,1013.31
2023-02-06T01:26:16.390Z,1013.25
2023-02-06T01:27:16.382Z,1013.28
2023-02-06T01:28:16.407Z,1013.32
2023-02-06T01:29:16.341Z,1013.28
2023-02-06T01:30:16.323Z,1013.33
2023-02-06T01:31:16.374Z,1013.31
2023-02-06T01:32:16.304Z,1013.32
2023-02-06T01:33:16.307Z,1013.27
2023-02-06T01:34:16.276Z,1013.27
2023-02-06T01:35:16.262Z,1013.24
2023-02-06T01:36:16.241Z,1013.23
2023-02-06T01:37:16.243Z,1013.26
2023-02-06T01:38:16.208Z,1013.25
2023-02-06T01:39:16.397Z,1013.28
2023-02-06T01:40:16.172Z,1013.29
2023-02-06T01:41:16.181Z,1013.25
2023-02-06T01:42:16.143Z,1013.24
2023-02-06T01:43:16.337Z,1013.24
2023-02-06T01:44:16.541Z,1013.18
2023-02-06T01:45:16.102Z,1013.19
2023-02-06T01:46:16.206Z,1013.19
2023-02-06T01:47:16.070Z,1013.16
2023-02-06T01:48:16.071Z,1013.15
2023-02-06T01:49:16.230Z,1013.14
2023-02-06T01:50:16.052Z,1013.14
2023-02-06T01:51:16.011Z,1013.12
2023-02-06T01:52:16.051Z,1013.16
2023-02-06T01:53:16.300Z,1013.16
2023-02-06T01:54:15.987Z,1013.15
2023-02-06T01:55:15.958Z,1013.11
2023-02-06T01:56:15.928Z,1013.11
2023-02-06T01:57:15.939Z,1013.07
2023-02-06T01:58:16.101Z,1013.04
2023-02-06T01:59:15.882Z,1013.05
2023-02-06T02:00:15.868Z,1013.05
2023-02-06T02:01:15.857Z,1013.07
2023-02-06T02:02:16.101Z,1013.06
2023-02-06T02:03:15.838Z,1013.11
2023-02-06T02:04:16.212Z,1013.13
2023-02-06T02:05:15.820Z,1013.12
2023-02-06T02:06:15.784Z,1013.16
2023-02-06T02:07:15.763Z,1013.17
2023-02-06T02:08:15.744Z,1013.20
2023-02-06T02:09:15.850Z,1013.18
2023-02-06T02:10:15.739Z,1013.17
2023-02-06T02:11:15.712Z,1013.14
2023-02-06T02:12:15.699Z,1013.14
2023-02-06T02:13:15.691Z,1013.11
2023-02-06T02:14:15.669Z,1013.09
2023-02-06T02:15:15.644Z,1013.13
2023-02-06T02:16:15.714Z,1013.16
2023-02-06T02:17:15.629Z,1013.20
2023-02-06T02:18:15.603Z,1013.19
2023-02-06T02:19:15.600Z,1013.21
2023-02-06T02:20:15.590Z,1013.18
2023-02-06T02:21:15.584Z,1013.19
2023-02-06T02:22:15.567Z,1013.16
2023-02-06T02:23:15.562Z,1013.09
2023-02-06T02:24:15.514Z,1013.04
2023-02-06T02:25:15.563Z,1013.02
2023-02-06T02:26:15.531Z,1013.05
2023-02-06T02:27:15.508Z,1013.06
2023-02-06T02:28:15.496Z,1013.03
2023-02-06T02:29:15.701Z,1013.00
2023-02-06T02:30:15.476Z,1012.99
2023-02-06T02:31:15.482Z,1012.93
2023-02-06T02:32:15.414Z,1012.91
2023-02-06T02:33:15.419Z,1012.90
2023-02-06T02:34:15.406Z,1012.84
2023-02-06T02:35:15.556Z,1012.82
2023-02-06T02:36:15.350Z,1012.82
2023-02-06T02:37:15.330Z,1012.82
2023-02-06T02:38:15.344Z,1012.82
2023-02-06T02:39:15.495Z,1012.86
2023-02-06T02:40:15.477Z,1012.83
2023-02-06T02:41:15.353Z,1012.84
2023-02-06T02:42:15.260Z,1012.82
2023-02-06T02:43:15.235Z,1012.74
2023-02-06T02:44:15.252Z,1012.73
2023-02-06T02:45:15.198Z,1012.69
2023-02-06T02:46:15.200Z,1012.70
2023-02-06T02:47:15.179Z,1012.75
2023-02-06T02:48:15.152Z,1012.71
2023-02-06T02:49:15.352Z,1012.73
2023-02-06T02:50:15.157Z,1012.76
2023-02-06T02:51:15.108Z,1012.75
2023-02-06T02:52:15.105Z,1012.80
2023-02-06T02:53:15.100Z,1012.81
2023-02-06T02:54:15.255Z,1012.76
2023-02-06T02:55:15.087Z,1012.73
2023-02-06T02:56:15.019Z,1012.71
2023-02-06T02:57:15.060Z,1012.73
2023-02-06T02:58:15.023Z,1012.68
2023-02-06T02:59:14.994Z,1012.71
2023-02-06T03:00:14.987Z,1012.72
2023-02-06T03:01:14.991Z,1012.73
2023-02-06T03:02:15.006Z,1012.75
2023-02-06T03:03:14.940Z,1012.72
2023-02-06T03:04:15.131Z,1012.72
2023-02-06T03:05:14.900Z,1012.67
2023-02-06T03:06:14.895Z,1012.60
2023-02-06T03:07:14.869Z,1012.57
2023-02-06T03:08:14.842Z,1012.57
2023-02-06T03:09:14.858Z,1012.60
2023-02-06T03:10:14.813Z,1012.60
2023-02-06T03:11:15.029Z,1012.57
2023-02-06T03:12:14.786Z,1012.63
2023-02-06T03:13:14.996Z,1012.62
2023-02-06T03:14:14.808Z,1012.62
2023-02-06T03:15:14.734Z,1012.66
2023-02-06T03:16:14.780Z,1012.65
2023-02-06T03:17:14.714Z,1012.69
2023-02-06T03:18:14.711Z,1012.63
2023-02-06T03:19:14.716Z,1012.64
2023-02-06T03:20:14.677Z,1012.62
2023-02-06T03:21:14.642Z,1012.61
2023-02-06T03:22:14.869Z,1012.63
2023-02-06T03:23:14.620Z,1012.62
2023-02-06T03:24:14.612Z,1012.60
2023-02-06T03:25:14.603Z,1012.64
2023-02-06T03:26:14.573Z,1012.58
2023-02-06T03:27:14.754Z,1012.62
2023-02-06T03:28:14.654Z,1012.56
2023-02-06T03:29:14.722Z,1012.54
2023-02-06T03:30:14.748Z,1012.50
2023-02-06T03:31:14.546Z,1012.47
2023-02-06T03:32:14.509Z,1012.46
2023-02-06T03:33:14.463Z,1012.43
2023-02-06T03:34:14.669Z,1012.42
2023-02-06T03:35:14.490Z,1012.44
2023-02-06T03:36:14.422Z,1012.40
2023-02-06T03:37:14.651Z,1012.44
2023-02-06T03:38:14.420Z,1012.47
2023-02-06T03:39:14.392Z,1012.50
2023-02-06T03:40:14.395Z,1012.56
2023-02-06T03:41:14.376Z,1012.54
2023-02-06T03:42:14.354Z,1012.54
2023-02-06T03:43:14.331Z,1012.51
2023-02-06T03:44:14.316Z,1012.49
2023-02-06T03:45:14.295Z,1012.48
2023-02-06T03:46:14.311Z,1012.45
2023-02-06T03:47:14.258Z,1012.44
2023-02-06T03:48:14.234Z,1012.48
2023-02-06T03:49:14.241Z,1012.50
2023-02-06T03:50:14.250Z,1012.51
2023-02-06T03:51:14.217Z,1012.49
2023-02-06T03:52:14.226Z,1012.46
2023-02-06T03:53:14.286Z,1012.43
2023-02-06T03:54:14.192Z,1012.41
2023-02-06T03:55:14.145Z,1012.40
2023-02-06T03:56:14.140Z,1012.38
2023-02-06T03:57:14.940Z,1012.42
2023-02-06T03:58:14.131Z,1012.43
2023-02-06T03:59:14.092Z,1012.42
2023-02-06T04:00:14.091Z,1012.45
2023-02-06T04:01:14.153Z,1012.48
2023-02-06T04:02:14.092Z,1012.49
2023-02-06T04:03:14.058Z,1012.51
2023-02-06T04:04:14.014Z,1012.56
2023-02-06T04:05:14.003Z,1012.63
2023-02-06T04:06:14.002Z,1012.65
2023-02-06T04:07:14.178Z,1012.67
2023-02-06T04:08:13.957Z,1012.66
2023-02-06T04:09:13.946Z,1012.64
2023-02-06T04:10:13.918Z,1012.64
2023-02-06T04:11:13.911Z,1012.62
2023-02-06T04:12:13.902Z,1012.65
2023-02-06T04:13:13.898Z,1012.63
2023-02-06T04:14:13.854Z,1012.65
2023-02-06T04:15:13.856Z,1012.61
2023-02-06T04:16:13.834Z,1012.63
2023-02-06T04:17:17.026Z,1012.61
2023-02-06T04:18:13.805Z,1012.61
2023-02-06T04:19:13.791Z,1012.58
2023-02-06T04:20:13.763Z,1012.55
2023-02-06T04:21:13.754Z,1012.57
2023-02-06T04:22:13.777Z,1012.57
2023-02-06T04:23:13.753Z,1012.58
2023-02-06T04:24:13.714Z,1012.54
2023-02-06T04:25:13.718Z,1012.60
2023-02-06T04:26:13.714Z,1012.58
2023-02-06T04:27:13.681Z,1012.58
2023-02-06T04:28:13.747Z,1012.60
2023-02-06T04:29:13.636Z,1012.59
2023-02-06T04:30:13.666Z,1012.59
2023-02-06T04:31:13.839Z,1012.57
2023-02-06T04:32:13.622Z,1012.56
2023-02-06T04:33:13.624Z,1012.55
2023-02-06T04:34:13.565Z,1012.53
2023-02-06T04:35:13.543Z,1012.52
2023-02-06T04:36:13.730Z,1012.51
2023-02-06T04:37:13.504Z,1012.53
2023-02-06T04:38:13.507Z,1012.53
2023-02-06T04:39:13.494Z,1012.52
2023-02-06T04:40:13.695Z,1012.60
2023-02-06T04:41:13.488Z,1012.66
2023-02-06T04:42:13.436Z,1012.67
2023-02-06T04:43:13.447Z,1012.67
2023-02-06T04:44:13.390Z,1012.62
2023-02-06T04:45:13.410Z,1012.58
2023-02-06T04:46:13.409Z,1012.59
2023-02-06T04:47:13.402Z,1012.59
2023-02-06T04:48:13.373Z,1012.55
2023-02-06T04:49:13.383Z,1012.52
2023-02-06T04:50:13.381Z,1012.49
2023-02-06T04:51:13.311Z,1012.46
2023-02-06T04:52:13.282Z,1012.46
2023-02-06T04:53:13.277Z,1012.46
2023-02-06T04:54:13.253Z,1012.46
2023-02-06T04:55:13.235Z,1012.49
2023-02-06T04:56:13.450Z,1012.49
2023-02-06T04:57:13.233Z,1012.50
2023-02-06T04:58:13.298Z,1012.46
2023-02-06T04:59:13.204Z,1012.51
2023-02-06T05:00:13.177Z,1012.59
2023-02-06T05:01:13.197Z,1012.65
2023-02-06T05:02:13.202Z,1012.72
2023-02-06T05:03:13.142Z,1012.71
2023-02-06T05:04:13.118Z,1012.75
2023-02-06T05:05:13.212Z,1012.76
2023-02-06T05:06:13.106Z,1012.80
2023-02-06T05:07:13.109Z,1012.77
2023-02-06T05:08:13.251Z,1012.79
2023-02-06T05:09:13.064Z,1012.75
2023-02-06T05:10:13.030Z,1012.72
2023-02-06T05:11:13.019Z,1012.68
2023-02-06T05:12:14.333Z,1012.64
2023-02-06T05:13:13.029Z,1012.64
2023-02-06T05:14:12.979Z,1012.64
2023-02-06T05:15:12.930Z,1012.64
2023-02-06T05:16:13.149Z,1012.67
2023-02-06T05:17:12.935Z,1012.62
2023-02-06T05:18:12.896Z,1012.68
2023-02-06T05:19:13.092Z,1012.67
2023-02-06T05:20:12.904Z,1012.65
2023-02-06T05:21:12.912Z,1012.65
2023-02-06T05:22:13.080Z,1012.67
2023-02-06T05:23:12.810Z,1012.62
2023-02-06T05:24:12.837Z,1012.57
2023-02-06T05:25:12.779Z,1012.52
2023-02-06T05:26:12.808Z,1012.47
2023-02-06T05:27:12.764Z,1012.46
2023-02-06T05:28:12.990Z,1012.45
2023-02-06T05:29:12.740Z,1012.40
2023-02-06T05:30:12.742Z,1012.35
2023-02-06T05:31:12.763Z,1012.32
2023-02-06T05:32:12.680Z,1012.26
2023-02-06T05:33:12.656Z,1012.16
2023-02-06T05:34:12.644Z,1012.11
2023-02-06T05:35:12.628Z,1012.13
2023-02-06T05:36:12.614Z,1012.14
2023-02-06T05:37:12.740Z,1012.16
2023-02-06T05:38:12.595Z,1012.21
2023-02-06T05:39:12.612Z,1012.23
2023-02-06T05:40:12.596Z,1012.25
2023-02-06T05:41:12.557Z,1012.31
2023-02-06T05:42:12.961Z,1012.30
2023-02-06T05:43:12.515Z,1012.33
2023-02-06T05:44:12.503Z,1012.32
2023-02-06T05:45:12.500Z,1012.34
2023-02-06T05:46:12.525Z,1012.40
2023-02-06T05:47:12.460Z,1012.40
2023-02-06T05:48:12.475Z,1012.44
2023-02-06T05:49:12.434Z,1012.41
2023-02-06T05:50:12.422Z,1012.42
2023-02-06T05:51:12.381Z,1012.39
2023-02-06T05:52:12.430Z,1012.40
2023-02-06T05:53:12.403Z,1012.39
2023-02-06T05:54:12.369Z,1012.38
2023-02-06T05:55:12.328Z,1012.39
2023-02-06T05:56:12.354Z,1012.40
2023-02-06T05:57:12.315Z,1012.39
2023-02-06T05:58:12.502Z,1012.36
2023-02-06T05:59:12.311Z,1012.35
2023-02-06T06:00:12.504Z,1012.37
2023-02-06T06:01:12.246Z,1012.34
2023-02-06T06:02:12.230Z,1012.39
2023-02-06T06:03:12.246Z,1012.37
2023-02-06T06:04:12.274Z,1012.42
2023-02-06T06:05:12.235Z,1012.40
2023-02-06T06:06:12.200Z,1012.43
2023-02-06T06:07:12.185Z,1012.43
2023-02-06T06:08:12.210Z,1012.45
2023-02-06T06:09:12.162Z,1012.48
2023-02-06T06:10:12.153Z,1012.54
2023-02-06T06:11:12.170Z,1012.57
2023-02-06T06:12:12.107Z,1012.56
2023-02-06T06:13:12.077Z,1012.58
2023-02-06T06:14:12.120Z,1012.58
2023-02-06T06:15:12.255Z,1012.52
2023-02-06T06:16:12.135Z,1012.52
2023-02-06T06:17:12.013Z,1012.49
2023-02-06T06:18:12.017Z,1012.50
2023-02-06T06:19:12.005Z,1012.50
2023-02-06T06:20:11.978Z,1012.54
2023-02-06T06:21:12.017Z,1012.54
2023-02-06T06:22:11.948Z,1012.50
2023-02-06T06:23:11.968Z,1012.45
2023-02-06T06:24:11.894Z,1012.43
2023-02-06T06:25:11.904Z,1012.39
2023-02-06T06:26:11.895Z,1012.40
2023-02-06T06:27:12.055Z,1012.35
2023-02-06T06:28:12.109Z,1012.38
2023-02-06T06:29:11.840Z,1012.36
2023-02-06T06:30:11.854Z,1012.35
2023-02-06T06:31:12.010Z,1012.37
2023-02-06T06:32:11.813Z,1012.30
2023-02-06T06:33:11.813Z,1012.30
2023-02-06T06:34:11.752Z,1012.33
2023-02-06T06:35:11.787Z,1012.33
2023-02-06T06:36:14.240Z,1012.34
2023-02-06T06:37:11.910Z,1012.33
2023-02-06T06:38:11.683Z,1012.31
2023-02-06T06:39:11.721Z,1012.30
2023-02-06T06:40:11.661Z,1012.33
2023-02-06T06:41:11.669Z,1012.33
2023-02-06T06:42:11.642Z,1012.35
2023-02-06T06:43:11.624Z,1012.31
2023-02-06T06:44:11.631Z,1012.30
2023-02-06T06:45:11.610Z,1012.35
2023-02-06T06:46:11.570Z,1012.30
2023-02-06T06:47:11.582Z,1012.33
2023-02-06T06:48:11.780Z,1012.34
2023-02-06T06:49:11.549Z,1012.28
2023-02-06T06:50:11.549Z,1012.30
2023-02-06T06:51:11.559Z,1012.31
2023-02-06T06:52:24.138Z,1012.32
2023-02-06T06:53:11.493Z,1012.34
2023-02-06T06:54:11.451Z,1012.36
2023-02-06T06:55:11.452Z,1012.36
2023-02-06T06:56:11.488Z,1012.37
2023-02-06T06:57:11.457Z,1012.37
2023-02-06T06:58:11.377Z,1012.32
2023-02-06T06:59:11.427Z,1012.33
2023-02-06T07:00:11.400Z,1012.31
2023-02-06T07:01:11.665Z,1012.35
2023-02-06T07:02:11.340Z,1012.33
2023-02-06T07:03:11.447Z,1012.34
2023-02-06T07:04:11.313Z,1012.32
2023-02-06T07:05:11.332Z,1012.31
2023-02-06T07:06:11.297Z,1012.33
2023-02-06T07:07:11.332Z,1012.38
2023-02-06T07:08:11.242Z,1012.42
2023-02-06T07:09:11.422Z,1012.46
2023-02-06T07:10:11.236Z,1012.47
2023-02-06T07:11:11.181Z,1012.48
2023-02-06T07:12:11.172Z,1012.52
2023-02-06T07:13:11.179Z,1012.51
2023-02-06T07:14:11.160Z,1012.50
2023-02-06T07:15:11.178Z,1012.52
2023-02-06T07:16:11.161Z,1012.54
2023-02-06T07:17:11.100Z,1012.59
2023-02-06T07:18:11.966Z,1012.63
2023-02-06T07:19:11.290Z,1012.63
2023-02-06T07:20:11.250Z,1012.64
2023-02-06T07:21:11.082Z,1012.63
2023-02-06T07:22:11.029Z,1012.63
2023-02-06T07:23:11.056Z,1012.64
2023-02-06T07:24:11.016Z,1012.59
2023-02-06T07:25:10.989Z,1012.62
2023-02-06T07:26:11.003Z,1012.61
2023-02-06T07:27:10.977Z,1012.60
2023-02-06T07:28:10.965Z,1012.58
2023-02-06T07:29:11.195Z,1012.57
2023-02-06T07:30:10.913Z,1012.56
2023-02-06T07:31:10.904Z,1012.59
2023-02-06T07:32:10.877Z,1012.58
2023-02-06T07:33:10.857Z,1012.59
2023-02-06T07:34:10.845Z,1012.60
2023-02-06T07:35:10.864Z,1012.61
2023-02-06T07:36:10.827Z,1012.64
2023-02-06T07:37:10.824Z,1012.67
2023-02-06T07:38:10.827Z,1012.67
2023-02-06T07:39:10.806Z,1012.64
2023-02-06T07:40:10.775Z,1012.69
2023-02-06T07:41:12.639Z,1012.66
2023-02-06T07:42:10.735Z,1012.67
2023-02-06T07:43:10.725Z,1012.66
2023-02-06T07:44:10.715Z,1012.66
2023-02-06T07:45:10.717Z,1012.64
2023-02-06T07:46:10.678Z,1012.62
2023-02-06T07:47:10.677Z,1012.62
2023-02-06T07:48:10.638Z,1012.65
2023-02-06T07:49:10.616Z,1012.61
2023-02-06T07:50:10.610Z,1012.58
2023-02-06T07:51:11.019Z,1012.58
2023-02-06T07:52:10.584Z,1012.62
2023-02-06T07:53:10.561Z,1012.61
2023-02-06T07:54:10.546Z,1012.61
2023-02-06T07:55:10.555Z,1012.58
2023-02-06T07:56:10.734Z,1012.55
2023-02-06T07:57:10.503Z,1012.51
2023-02-06T07:58:10.488Z,1012.48
2023-02-06T07:59:10.463Z,1012.45
2023-02-06T08:00:10.520Z,1012.38
2023-02-06T08:01:10.488Z,1012.38
2023-02-06T08:02:10.444Z,1012.37
2023-02-06T08:03:10.404Z,1012.34
2023-02-06T08:04:10.425Z,1012.37
2023-02-06T08:05:10.376Z,1012.42
2023-02-06T08:06:10.390Z,1012.41
2023-02-06T08:07:10.344Z,1012.45
2023-02-06T08:08:10.315Z,1012.43
2023-02-06T08:09:10.339Z,1012.43
2023-02-06T08:10:10.332Z,1012.43
2023-02-06T08:11:10.321Z,1012.44
2023-02-06T08:12:11.875Z,1012.46
2023-02-06T08:13:10.272Z,1012.45
2023-02-06T08:14:10.259Z,1012.40
2023-02-06T08:15:10.246Z,1012.42
2023-02-06T08:16:10.214Z,1012.42
2023-02-06T08:17:10.246Z,1012.43
2023-02-06T08:18:10.231Z,1012.41
2023-02-06T08:19:10.155Z,1012.39
2023-02-06T08:20:10.184Z,1012.41
2023-02-06T08:21:10.193Z,1012.44
2023-02-06T08:22:10.346Z,1012.42
2023-02-06T08:23:10.119Z,1012.45
2023-02-06T08:24:10.111Z,1012.38
2023-02-06T08:25:10.072Z,1012.36
2023-02-06T08:26:10.073Z,1012.33
2023-02-06T08:27:10.061Z,1012.30
2023-02-06T08:28:10.082Z,1012.29
2023-02-06T08:29:10.024Z,1012.26
2023-02-06T08:30:10.018Z,1012.28
2023-02-06T08:31:10.160Z,1012.26
2023-02-06T08:32:10.008Z,1012.21
2023-02-06T08:33:10.396Z,1012.18
2023-02-06T08:34:09.981Z,1012.21
2023-02-06T08:35:09.935Z,1012.24
2023-02-06T08:36:09.943Z,1012.23
2023-02-06T08:37:09.901Z,1012.21
2023-02-06T08:38:09.894Z,1012.21
2023-02-06T08:39:09.914Z,1012.24
2023-02-06T08:40:09.883Z,1012.18
2023-02-06T08:41:09.883Z,1012.17
2023-02-06T08:42:09.866Z,1012.21
2023-02-06T08:43:09.820Z,1012.11
2023-02-06T08:44:09.832Z,1012.12
2023-02-06T08:45:09.780Z,1012.10
2023-02-06T08:46:09.860Z,1012.08
2023-02-06T08:47:10.744Z,1012.05
2023-02-06T08:48:09.743Z,1012.08
2023-02-06T08:49:09.756Z,1012.11
2023-02-06T08:50:09.712Z,1012.17
2023-02-06T08:51:09.712Z,1012.15
2023-02-06T08:52:09.702Z,1012.17
2023-02-06T08:53:09.661Z,1012.15
2023-02-06T08:54:09.638Z,1012.14
2023-02-06T08:55:09.657Z,1012.19
2023-02-06T08:56:09.610Z,1012.17
2023-02-06T08:57:09.629Z,1012.14
2023-02-06T08:58:09.583Z,1012.18
2023-02-06T08:59:09.604Z,1012.19
2023-02-06T09:00:09.563Z,1012.17
2023-02-06T09:01:09.625Z,1012.24
2023-02-06T09:02:09.611Z,1012.21
2023-02-06T09:03:09.540Z,1012.16
2023-02-06T09:04:09.500Z,1012.19
2023-02-06T09:05:09.518Z,1012.19
2023-02-06T09:06:10.579Z,1012.21
2023-02-06T09:07:09.489Z,1012.15
2023-02-06T09:08:09.461Z,1012.16
2023-02-06T09:09:09.492Z,1012.20
2023-02-06T09:10:18.981Z,1012.24
2023-02-06T09:11:09.438Z,1012.21
2023-02-06T09:12:09.380Z,1012.16
2023-02-06T09:13:09.371Z,1012.18
2023-02-06T09:14:09.420Z,1012.14
2023-02-06T09:15:09.336Z,1012.12
2023-02-06T09:16:09.369Z,1012.15
2023-02-06T09:17:09.375Z,1012.13
2023-02-06T09:18:09.313Z,1012.17
2023-02-06T09:19:09.480Z,1012.15
2023-02-06T09:20:09.274Z,1012.17
2023-02-06T09:21:09.389Z,1012.17
2023-02-06T09:22:09.446Z,1012.17
2023-02-06T09:23:09.215Z,1012.14
2023-02-06T09:24:09.205Z,1012.10
2023-02-06T09:25:09.203Z,1012.11
2023-02-06T09:26:09.174Z,1012.10
2023-02-06T09:27:09.167Z,1012.06
2023-02-06T09:28:09.372Z,1012.05
2023-02-06T09:29:09.145Z,1012.01
2023-02-06T09:30:09.635Z,1012.02
2023-02-06T09:31:09.273Z,1011.96
2023-02-06T09:32:09.106Z,1011.92
2023-02-06T09:33:09.103Z,1011.92
2023-02-06T09:34:09.056Z,1011.87
2023-02-06T09:35:09.055Z,1011.91
2023-02-06T09:36:09.061Z,1011.89
2023-02-06T09:37:09.064Z,1011.89
2023-02-06T09:38:09.031Z,1011.90
2023-02-06T09:39:08.984Z,1011.89
2023-02-06T09:40:08.967Z,1011.88
2023-02-06T09:41:08.950Z,1011.87
2023-02-06T09:42:08.972Z,1011.88
2023-02-06T09:43:08.954Z,1011.87
2023-02-06T09:44:08.961Z,1011.90
2023-02-06T09:45:08.920Z,1011.85
2023-02-06T09:46:08.897Z,1011.89
2023-02-06T09:47:08.907Z,1011.93
2023-02-06T09:48:08.869Z,1012.00
2023-02-06T09:49:08.858Z,1012.01
2023-02-06T09:50:09.019Z,1012.00
2023-02-06T09:51:08.806Z,1012.05
2023-02-06T09:52:08.819Z,1012.07
2023-02-06T09:53:08.833Z,1012.05
2023-02-06T09:54:08.847Z,1012.10
2023-02-06T09:55:08.947Z,1012.09
2023-02-06T09:56:08.748Z,1012.07
2023-02-06T09:57:08.769Z,1012.02
2023-02-06T09:58:08.711Z,1012.02
2023-02-06T09:59:08.895Z,1012.02
2023-02-06T10:00:08.693Z,1012.09
2023-02-06T10:01:08.701Z,1012.12
2023-02-06T10:02:08.645Z,1012.09
2023-02-06T10:03:08.670Z,1012.10
2023-02-06T10:04:08.694Z,1012.08
2023-02-06T10:05:08.643Z,1012.06
2023-02-06T10:06:08.641Z,1012.08
2023-02-06T10:07:08.603Z,1012.09
2023-02-06T10:08:08.632Z,1012.12
2023-02-06T10:09:08.578Z,1012.08
2023-02-06T10:10:08.576Z,1012.08
2023-02-06T10:11:08.553Z,1012.09
2023-02-06T10:12:08.720Z,1012.09
2023-02-06T10:13:08.527Z,1012.07
2023-02-06T10:14:08.470Z,1012.09
2023-02-06T10:15:08.445Z,1012.06
2023-02-06T10:16:10.447Z,1012.08
2023-02-06T10:17:08.426Z,1012.12
2023-02-06T10:18:08.429Z,1012.06
2023-02-06T10:19:08.439Z,1012.06
2023-02-06T10:20:08.394Z,1012.07
2023-02-06T10:21:08.375Z,1012.07
2023-02-06T10:22:08.363Z,1012.08
2023-02-06T10:23:08.537Z,1012.10
2023-02-06T10:24:08.327Z,1012.07
2023-02-06T10:25:08.480Z,1012.12
2023-02-06T10:26:08.294Z,1012.15
2023-02-06T10:27:08.280Z,1012.04
2023-02-06T10:28:08.333Z,1012.07
2023-02-06T10:29:08.262Z,1012.09
2023-02-06T10:30:08.248Z,1012.07
2023-02-06T10:31:08.427Z,1012.11
2023-02-06T10:32:08.230Z,1012.09
2023-02-06T10:33:14.310Z,1012.15
2023-02-06T10:34:08.182Z,1012.12
2023-02-06T10:35:08.199Z,1012.09
2023-02-06T10:36:08.165Z,1012.09
2023-02-06T10:37:08.358Z,1012.10
2023-02-06T10:38:08.165Z,1012.11
2023-02-06T10:39:08.165Z,1012.06
2023-02-06T10:40:08.122Z,1012.08
2023-02-06T10:41:08.142Z,1012.07
2023-02-06T10:42:08.107Z,1012.04
2023-02-06T10:43:08.090Z,1012.03
2023-02-06T10:44:08.271Z,1012.01
2023-02-06T10:45:19.339Z,1011.97
2023-02-06T10:46:08.029Z,1011.95
2023-02-06T10:47:08.137Z,1011.93
2023-02-06T10:48:07.997Z,1011.88
2023-02-06T10:49:07.970Z,1011.86
2023-02-06T10:50:07.976Z,1011.79
2023-02-06T10:51:08.164Z,1011.79
2023-02-06T10:52:07.939Z,1011.84
2023-02-06T10:53:07.950Z,1011.75
2023-02-06T10:54:07.901Z,1011.74
2023-02-06T10:55:07.911Z,1011.71
2023-02-06T10:56:07.877Z,1011.71
2023-02-06T10:57:07.870Z,1011.70
2023-02-06T10:58:07.858Z,1011.64
2023-02-06T10:59:07.880Z,1011.68
2023-02-06T11:00:07.816Z,1011.61
2023-02-06T11:01:23.726Z,1011.62
2023-02-06T11:02:07.893Z,1011.63
2023-02-06T11:03:08.538Z,1011.60
2023-02-06T11:04:07.767Z,1011.57
2023-02-06T11:05:07.767Z,1011.55
2023-02-06T11:06:07.712Z,1011.58
2023-02-06T11:07:07.702Z,1011.57
2023-02-06T11:08:07.906Z,1011.59
2023-02-06T11:09:07.750Z,1011.62
2023-02-06T11:10:07.678Z,1011.65
2023-02-06T11:11:07.670Z,1011.64
2023-02-06T11:12:07.627Z,1011.61
2023-02-06T11:13:07.688Z,1011.67
2023-02-06T11:14:07.651Z,1011.51
2023-02-06T11:15:07.601Z,1011.56
2023-02-06T11:16:07.618Z,1011.59
2023-02-06T11:17:07.592Z,1011.57
2023-02-06T11:18:07.558Z,1011.56
2023-02-06T11:19:07.565Z,1011.59
2023-02-06T11:20:07.514Z,1011.62
2023-02-06T11:21:07.549Z,1011.62
2023-02-06T11:22:07.482Z,1011.62
2023-02-06T11:23:07.684Z,1011.66
2023-02-06T11:24:07.492Z,1011.64
2023-02-06T11:25:07.468Z,1011.62
2023-02-06T11:26:07.417Z,1011.58
2023-02-06T11:27:07.457Z,1011.55
2023-02-06T11:28:07.471Z,1011.49
2023-02-06T11:29:07.403Z,1011.52
2023-02-06T11:30:07.434Z,1011.46
2023-02-06T11:31:07.416Z,1011.50
2023-02-06T11:32:07.343Z,1011.48
2023-02-06T11:33:07.352Z,1011.54
2023-02-06T11:34:07.327Z,1011.51
2023-02-06T11:35:07.354Z,1011.48
2023-02-06T11:36:07.289Z,1011.48
2023-02-06T11:37:07.293Z,1011.45
2023-02-06T11:38:07.295Z,1011.44
2023-02-06T11:39:07.253Z,1011.41
2023-02-06T11:40:07.257Z,1011.46
2023-02-06T11:41:07.208Z,1011.52
2023-02-06T11:42:07.181Z,1011.52
2023-02-06T11:43:07.222Z,1011.55
2023-02-06T11:44:07.204Z,1011.56
2023-02-06T11:45:07.203Z,1011.59
2023-02-06T11:46:07.226Z,1011.59
2023-02-06T11:47:07.155Z,1011.54
2023-02-06T11:48:07.145Z,1011.57
2023-02-06T11:49:07.076Z,1011.59
2023-02-06T11:50:07.260Z,1011.52
2023-02-06T11:51:07.036Z,1011.50
2023-02-06T11:52:07.268Z,1011.43
2023-02-06T11:53:07.069Z,1011.39
2023-02-06T11:54:07.008Z,1011.35
2023-02-06T11:55:06.992Z,1011.32
2023-02-06T11:56:07.006Z,1011.39
2023-02-06T11:57:07.018Z,1011.42
2023-02-06T11:58:06.946Z,1011.45
2023-02-06T11:59:07.278Z,1011.48
2023-02-06T12:00:06.912Z,1011.41
2023-02-06T12:01:06.939Z,1011.43
2023-02-06T12:02:06.976Z,1011.32
2023-02-06T12:03:06.986Z,1011.30
2023-02-06T12:04:06.878Z,1011.33
2023-02-06T12:05:06.824Z,1011.37